ETIC

Details ICAO ETIC
Name GRAFENWOHR AAF
Region Germany - Military
Timezone Europe/Berlin (UTC+1.0)
Plans Departing 2
Arriving 1
Stats Elevation 1,363 ft / 415 m (AMSL)
Location 49.698687° 11.940176°
Runways 1
Magnetic Variation 3.248° E
Sunrise 2017-12-14 07:03:24 UTC / 2017-12-14 08:03:24 Local
Sunset 2017-12-14 15:13:12 UTC / 2017-12-14 16:13:12 Local
Advertisement - Login to hide

Runways

ID Width Length Bearing (true) Bearing (mag) Surface Threshold Offset Overrun Length
14 73 ft / 22 m 3,296 ft / 1,005 m 143.52° 140.27° Asphalt 0 ft / 0 m 0 ft / 0 m
32 73 ft / 22 m 3,296 ft / 1,005 m 323.52° 320.27° Asphalt 0 ft / 0 m 0 ft / 0 m

Map

Weather


0- 5 10 15 20 25 30 35+ Temperature / ° C

Clouds and Precipitation
Forecast for 2017-12-14 18:00 UTC. Updated 31 minutes ago

Ground ~20,000 ft ~40,000 ft Winds

METAR

ETIC 141256Z AUTO 23010G16KT 9999 BKN042 OVC049 05/M02 A2948 RMK AO2 SLP000 T00471020 FZRANO $

TAF

TAF AMD ETIC 140753Z 1408/1512 25015G25KT 9999 BKN030 620309 QNH2927INS TEMPO 1408/1412 25025G35KT 520003 BECMG 1501/1502 26015G25KT 9999 BKN010 QNH2933INS TX06/1412Z TN03/1421Z

Frequencies

Tower 122.10 MHz GRAF TWR
Warning: Do not use this data for real-world aviation or navigation. No guarantee of current accuracy is given.